Time;durP1;ratioP1;P1;durP2;ratioP2;P2;SDS_P1;SDS_P2;PMS_P1;PMS_P2;Temp;Humidity;BMP_temperature;BMP_pressure;BME280_temperature;BME280_humidity;BME280_pressure;Samples;Min_cycle;Max_cycle;Signal;HPM_P1;HPM_P2
2023/02/24 00:13:25;;;;;;;47.30;29.40;;;3.50;99.50;;;;;;4858261;28;21317;-83
2023/02/24 00:59:08;;;;;;;48.43;28.97;;;3.50;99.90;;;;;;4869438;28;20345;-82
2023/02/24 01:49:20;;;;;;;51.27;29.60;;;3.50;99.90;;;;;;4823679;28;20485;-80
2023/02/24 02:15:19;;;;;;;48.50;29.30;;;3.80;99.90;;;;;;4710253;29;20465;-82
2023/02/24 02:19:54;;;;;;;47.73;30.23;;;3.80;99.90;;;;;;4634158;30;21193;-80
2023/02/24 02:35:25;;;;;;;53.30;29.97;;;3.90;99.90;;;;;;4692413;29;20286;-81
2023/02/24 03:05:56;;;;;;;49.13;30.23;;;4.40;99.90;;;;;;4774544;29;20227;-82
2023/02/24 03:25:58;;;;;;;44.83;30.30;;;4.40;99.90;;;;;;4710797;29;20457;-81
2023/02/24 04:01:05;;;;;;;60.47;35.17;;;4.50;99.90;;;;;;4706204;29;20579;-79
2023/02/24 04:27:06;;;;;;;59.53;35.87;;;5.00;99.90;;;;;;4691108;30;20215;-83
2023/02/24 05:22:42;;;;;;;75.27;45.03;;;5.30;99.90;;;;;;4737135;29;20233;-80
2023/02/24 05:47:35;;;;;;;83.07;46.87;;;5.20;99.90;;;;;;4690906;30;20227;-80
2023/02/24 06:18:05;;;;;;;86.07;47.20;;;5.70;99.90;;;;;;4786444;29;20371;-82
2023/02/24 06:43:48;;;;;;;88.53;45.17;;;6.20;99.90;;;;;;4770034;29;20511;-80
2023/02/24 07:14:21;;;;;;;69.70;41.37;;;6.50;99.90;;;;;;4840573;29;21006;-83
2023/02/24 07:40:00;;;;;;;64.90;37.83;;;6.70;99.90;;;;;;4895422;28;20216;-81
2023/02/24 07:44:13;;;;;;;67.33;37.77;;;6.70;99.90;;;;;;4862571;29;20600;-83
2023/02/24 08:05:01;;;;;;;60.93;34.10;;;7.10;99.90;;;;;;4849823;29;20249;-81
2023/02/24 08:25:17;;;;;;;54.77;31.50;;;7.20;99.90;;;;;;4745075;29;20210;-83
2023/02/24 09:00:59;;;;;;;46.13;27.03;;;7.50;99.90;;;;;;4895614;28;20240;-83
2023/02/24 09:26:31;;;;;;;39.40;25.20;;;7.50;99.90;;;;;;4838620;29;20212;-82
2023/02/24 09:30:52;;;;;;;44.33;26.20;;;7.50;99.90;;;;;;4812794;29;20322;-81
2023/02/24 10:06:19;;;;;;;34.50;21.97;;;7.60;99.90;;;;;;4863562;29;20230;-80
2023/02/24 10:32:23;;;;;;;31.43;21.13;;;7.70;99.90;;;;;;4955373;28;20562;-87
2023/02/24 10:36:43;;;;;;;33.20;21.07;;;7.60;99.90;;;;;;4875410;29;20710;-87
2023/02/24 10:52:49;;;;;;;23.67;15.33;;;7.30;99.90;;;;;;4726311;29;20276;-82
2023/02/24 10:57:14;;;;;;;23.23;15.10;;;7.20;99.90;;;;;;4677120;30;20250;-81
2023/02/24 11:27:56;;;;;;;17.77;11.97;;;7.00;99.90;;;;;;4722098;29;20270;-80
2023/02/24 11:58:29;;;;;;;17.83;10.47;;;7.50;99.90;;;;;;4834055;29;20208;-81
2023/02/24 12:23:36;;;;;;;17.03;11.17;;;7.80;99.90;;;;;;4710903;29;20212;-82
2023/02/24 12:53:46;;;;;;;18.90;10.70;;;8.20;99.90;;;;;;4695652;29;21352;-81
2023/02/24 13:19:04;;;;;;;15.00;9.50;;;8.20;99.90;;;;;;4674403;29;20346;-78
2023/02/24 13:34:45;;;;;;;14.50;10.07;;;8.00;99.90;;;;;;4590692;30;20674;-80
2023/02/24 14:04:50;;;;;;;17.87;11.53;;;8.40;99.90;;;;;;4586276;30;20242;-80
2023/02/24 14:25:21;;;;;;;19.27;12.23;;;8.40;99.90;;;;;;4503153;31;20502;-80
2023/02/24 14:50:19;;;;;;;20.57;12.57;;;8.30;98.00;;;;;;4596328;30;20416;-80
2023/02/24 15:15:51;;;;;;;20.40;13.37;;;8.00;99.90;;;;;;4566592;30;20609;-83
2023/02/24 15:31:29;;;;;;;22.93;15.10;;;7.90;99.90;;;;;;4549017;30;20302;-84
2023/02/24 15:56:47;;;;;;;19.77;13.53;;;7.70;97.60;;;;;;4722642;29;20200;-83
2023/02/24 16:22:12;;;;;;;21.83;14.57;;;7.50;98.20;;;;;;4719491;29;20978;-82
2023/02/24 16:57:27;;;;;;;17.87;10.97;;;6.10;99.90;;;;;;5926191;23;20633;-83
2023/02/24 17:23:07;;;;;;;17.97;10.30;;;5.40;99.90;;;;;;4795284;29;20262;-84
2023/02/24 17:58:37;;;;;;;20.07;9.80;;;4.40;99.50;;;;;;4768213;29;20290;-81
2023/02/24 18:23:31;;;;;;;14.80;9.07;;;4.70;98.80;;;;;;4791789;29;20243;-82
2023/02/24 18:43:42;;;;;;;19.27;9.37;;;4.70;96.90;;;;;;4573564;30;20621;-81
2023/02/24 19:24:43;;;;;;;19.93;10.10;;;4.00;99.90;;;;;;4618282;30;20731;-85
2023/02/24 20:00:17;;;;;;;23.03;12.37;;;2.90;99.90;;;;;;4830120;29;20357;-81
2023/02/24 20:30:02;;;;;;;29.87;18.87;;;3.10;99.90;;;;;;4709453;29;20565;-82
2023/02/24 21:01:06;;;;;;;31.07;19.27;;;3.60;99.90;;;;;;4770026;29;20237;-83
2023/02/24 21:41:41;;;;;;;28.67;15.60;;;4.30;99.90;;;;;;4841422;29;20260;-84
2023/02/24 22:02:04;;;;;;;26.10;16.00;;;4.30;99.90;;;;;;4744869;29;20221;-85
2023/02/24 22:06:25;;;;;;;27.00;17.27;;;4.40;99.90;;;;;;4671784;29;20314;-83
2023/02/24 22:31:48;;;;;;;29.53;18.90;;;4.40;99.90;;;;;;4561168;30;20290;-84
2023/02/24 22:57:33;;;;;;;32.40;21.47;;;4.50;99.90;;;;;;4629029;29;20205;-83
2023/02/24 23:22:56;;;;;;;30.07;18.67;;;4.50;99.90;;;;;;4715152;29;20280;-84
2023/02/24 23:48:33;;;;;;;22.40;14.70;;;4.50;99.90;;;;;;4692466;29;20569;-82
